Time;durP1;ratioP1;P1;durP2;ratioP2;P2;SDS_P1;SDS_P2;PMS_P1;PMS_P2;Temp;Humidity;BMP_temperature;BMP_pressure;BME280_temperature;BME280_humidity;BME280_pressure;Samples;Min_cycle;Max_cycle;Signal;HPM_P1;HPM_P2
2023/03/07 00:01:04;;;;;;;9.63;5.10;;;1.00;99.90;;;;;;5122187;28;20453;-62
2023/03/07 00:03:32;;;;;;;10.13;4.30;;;0.90;99.90;;;;;;5121782;28;20425;-55
2023/03/07 00:06:04;;;;;;;9.40;4.97;;;0.90;99.90;;;;;;5122434;28;20469;-57
2023/03/07 00:08:31;;;;;;;6.50;4.17;;;0.90;99.90;;;;;;5122476;28;20429;-63
2023/03/07 00:11:01;;;;;;;6.20;3.70;;;0.80;99.90;;;;;;5122222;28;20452;-60
2023/03/07 00:13:30;;;;;;;5.50;3.70;;;0.80;99.90;;;;;;5122011;28;20476;-62
2023/03/07 00:16:01;;;;;;;5.80;4.00;;;0.80;99.90;;;;;;5121656;28;20493;-63
2023/03/07 00:18:28;;;;;;;9.37;5.07;;;0.70;99.90;;;;;;5121527;28;20433;-56
2023/03/07 00:21:00;;;;;;;11.37;5.07;;;0.70;99.90;;;;;;5122119;28;20429;-60
2023/03/07 00:23:27;;;;;;;11.80;5.23;;;0.60;99.90;;;;;;5121700;28;20465;-62
2023/03/07 00:26:01;;;;;;;12.70;4.73;;;0.70;99.90;;;;;;5121852;28;20445;-63
2023/03/07 00:28:28;;;;;;;9.90;4.50;;;0.70;99.90;;;;;;5120405;28;20928;-60
2023/03/07 00:30:58;;;;;;;9.63;6.03;;;0.70;99.90;;;;;;5119455;28;20444;-55
2023/03/07 00:33:25;;;;;;;6.47;4.00;;;0.80;99.90;;;;;;5120439;28;20425;-58
2023/03/07 00:35:56;;;;;;;8.10;5.20;;;0.80;99.90;;;;;;5120200;28;20425;-56
2023/03/07 00:38:25;;;;;;;9.93;3.67;;;0.80;99.90;;;;;;5120512;28;20430;-60
2023/03/07 00:41:00;;;;;;;8.67;5.73;;;0.70;99.90;;;;;;5119848;28;20508;-63
2023/03/07 00:43:27;;;;;;;8.77;6.37;;;0.70;99.90;;;;;;5120205;28;20425;-53
2023/03/07 00:45:55;;;;;;;9.07;6.13;;;0.80;99.90;;;;;;5119627;28;20449;-56
2023/03/07 00:48:22;;;;;;;9.87;4.80;;;0.80;99.90;;;;;;5119360;28;20433;-63
2023/03/07 00:50:49;;;;;;;11.40;4.70;;;0.90;99.90;;;;;;5118575;28;20469;-61
2023/03/07 00:53:16;;;;;;;6.97;3.90;;;0.90;99.90;;;;;;5118541;28;20434;-60
2023/03/07 00:55:53;;;;;;;7.00;4.50;;;0.80;99.90;;;;;;5119182;28;20432;-60
2023/03/07 00:58:20;;;;;;;8.73;4.80;;;0.80;99.90;;;;;;5118750;28;20398;-59
2023/03/07 01:00:47;;;;;;;11.00;5.60;;;0.80;99.90;;;;;;5119261;28;20452;-62
2023/03/07 01:03:14;;;;;;;6.50;4.97;;;0.80;99.90;;;;;;5119605;28;20441;-60
2023/03/07 01:05:41;;;;;;;15.00;6.13;;;0.90;99.90;;;;;;5119511;28;20438;-61
2023/03/07 01:08:08;;;;;;;9.40;5.77;;;0.90;99.90;;;;;;5119425;28;20461;-59
2023/03/07 01:10:35;;;;;;;12.60;5.47;;;0.90;99.90;;;;;;5119219;28;20461;-59
2023/03/07 01:13:03;;;;;;;9.03;6.20;;;0.90;99.90;;;;;;5119834;28;20476;-61
2023/03/07 01:15:30;;;;;;;8.23;5.30;;;0.80;99.90;;;;;;5120053;28;20445;-63
2023/03/07 01:17:57;;;;;;;11.33;5.67;;;0.90;99.90;;;;;;5119803;28;20488;-61
2023/03/07 01:20:24;;;;;;;9.03;5.43;;;0.90;99.90;;;;;;5119613;28;20425;-61
2023/03/07 01:22:51;;;;;;;11.37;5.50;;;0.90;99.90;;;;;;5118923;28;20445;-62
2023/03/07 01:25:18;;;;;;;12.13;6.13;;;0.90;99.90;;;;;;5119126;28;20429;-58
2023/03/07 01:27:47;;;;;;;9.63;4.60;;;0.90;99.90;;;;;;5081040;28;1095841;-62
2023/03/07 01:30:15;;;;;;;9.40;5.80;;;0.90;99.90;;;;;;5120513;28;20223;-60
2023/03/07 01:32:42;;;;;;;14.27;7.10;;;0.80;99.90;;;;;;5120101;28;20452;-60
2023/03/07 01:35:09;;;;;;;10.20;5.40;;;0.80;99.90;;;;;;5120322;28;20466;-56
2023/03/07 01:37:36;;;;;;;10.17;5.00;;;0.80;99.90;;;;;;5120343;28;20468;-59
2023/03/07 01:40:04;;;;;;;11.23;6.00;;;0.80;99.90;;;;;;5120688;28;20469;-62
2023/03/07 01:42:31;;;;;;;11.27;6.57;;;0.80;99.90;;;;;;5120506;28;20441;-62
2023/03/07 01:45:01;;;;;;;13.00;5.50;;;0.70;99.90;;;;;;5120190;28;20432;-62
2023/03/07 01:47:29;;;;;;;13.87;6.20;;;0.70;99.90;;;;;;5119953;28;20481;-63
2023/03/07 01:49:58;;;;;;;14.87;7.73;;;0.70;99.90;;;;;;5119955;28;20430;-63
2023/03/07 01:52:29;;;;;;;10.23;5.80;;;0.70;99.90;;;;;;5120116;28;20457;-61
2023/03/07 01:55:01;;;;;;;13.10;6.17;;;0.80;99.90;;;;;;5120396;28;20449;-65
2023/03/07 01:57:32;;;;;;;15.17;7.40;;;0.70;99.90;;;;;;5120043;28;20501;-65
2023/03/07 02:00:05;;;;;;;13.10;9.00;;;0.70;99.90;;;;;;5119116;28;20410;-62
2023/03/07 02:02:36;;;;;;;14.47;7.73;;;0.70;99.90;;;;;;5119304;28;20426;-60
2023/03/07 02:05:09;;;;;;;11.83;5.87;;;0.80;99.90;;;;;;5119747;28;20406;-60
2023/03/07 02:07:42;;;;;;;20.27;7.50;;;0.80;99.90;;;;;;5119244;28;20483;-65
2023/03/07 02:10:10;;;;;;;13.17;8.80;;;0.90;99.90;;;;;;5119227;28;20422;-61
2023/03/07 02:12:39;;;;;;;16.10;7.90;;;0.90;99.90;;;;;;5119831;28;20457;-62
2023/03/07 02:15:08;;;;;;;14.03;8.17;;;1.00;99.90;;;;;;5120000;28;20461;-61
2023/03/07 02:17:36;;;;;;;11.83;7.40;;;1.00;99.90;;;;;;5119800;28;20481;-56
2023/03/07 02:20:19;;;;;;;17.70;9.50;;;1.00;99.90;;;;;;5119426;28;20457;-59
2023/03/07 02:22:49;;;;;;;19.90;9.47;;;1.10;99.90;;;;;;5119508;28;20510;-60
2023/03/07 02:25:21;;;;;;;23.43;11.70;;;1.10;99.90;;;;;;5119285;28;20529;-64
2023/03/07 02:27:52;;;;;;;25.77;9.97;;;1.10;99.90;;;;;;5119452;28;20464;-63
2023/03/07 02:30:19;;;;;;;21.63;12.40;;;1.20;99.90;;;;;;5118764;28;20441;-59
2023/03/07 02:32:46;;;;;;;16.27;9.67;;;1.20;99.90;;;;;;5118504;28;20449;-59
2023/03/07 02:35:15;;;;;;;18.93;9.50;;;1.30;99.90;;;;;;5118575;28;20421;-60
2023/03/07 02:37:45;;;;;;;19.97;9.73;;;1.30;99.90;;;;;;5118492;28;20497;-63
2023/03/07 02:40:16;;;;;;;29.90;10.47;;;1.30;99.90;;;;;;5118743;28;20437;-62
2023/03/07 02:42:44;;;;;;;22.53;10.77;;;1.40;99.90;;;;;;5118513;28;20476;-63
2023/03/07 02:45:14;;;;;;;20.10;9.50;;;2.00;99.90;;;;;;5118173;28;20441;-60
2023/03/07 02:47:42;;;;;;;19.47;10.10;;;1.70;99.90;;;;;;5117796;28;20472;-61
2023/03/07 02:50:10;;;;;;;25.27;10.30;;;1.50;99.90;;;;;;5117784;28;20418;-59
2023/03/07 02:52:37;;;;;;;16.43;7.97;;;1.50;99.90;;;;;;5118026;28;20441;-61
2023/03/07 02:55:05;;;;;;;19.00;11.60;;;1.60;99.90;;;;;;5118552;28;20426;-56
2023/03/07 02:57:31;;;;;;;23.63;12.13;;;1.60;99.90;;;;;;5118662;28;20484;-62
2023/03/07 02:59:58;;;;;;;18.57;9.10;;;1.60;99.90;;;;;;5117377;28;20457;-62
2023/03/07 03:02:28;;;;;;;27.93;12.23;;;1.60;99.90;;;;;;5118122;28;20442;-64
2023/03/07 03:04:55;;;;;;;22.27;10.33;;;1.70;99.90;;;;;;5118242;28;20453;-60
2023/03/07 03:07:22;;;;;;;18.40;10.70;;;1.60;99.90;;;;;;5118234;28;20417;-62
2023/03/07 03:09:51;;;;;;;26.23;10.87;;;1.60;99.90;;;;;;5118163;28;20446;-63
2023/03/07 03:12:17;;;;;;;24.80;12.30;;;1.70;99.90;;;;;;5118306;28;20445;-60
2023/03/07 03:14:44;;;;;;;25.47;10.60;;;1.60;99.90;;;;;;5117812;28;20461;-63
2023/03/07 03:17:13;;;;;;;17.70;9.10;;;1.50;99.90;;;;;;5117754;28;20474;-60
2023/03/07 03:19:43;;;;;;;23.63;11.10;;;1.60;99.90;;;;;;5117878;28;20456;-63
2023/03/07 03:22:11;;;;;;;22.90;10.90;;;1.60;99.90;;;;;;5118153;28;20460;-62
2023/03/07 03:24:39;;;;;;;21.83;11.03;;;1.60;99.90;;;;;;5118214;28;20425;-60
2023/03/07 03:27:06;;;;;;;24.73;9.37;;;1.60;99.90;;;;;;5118700;28;20425;-60
2023/03/07 03:29:33;;;;;;;22.70;10.83;;;1.60;99.90;;;;;;5118236;28;20425;-61
2023/03/07 03:32:00;;;;;;;20.03;9.63;;;1.60;99.90;;;;;;5118182;28;20449;-61
2023/03/07 03:34:28;;;;;;;18.77;10.90;;;1.60;99.90;;;;;;5117905;28;20413;-62
2023/03/07 03:36:56;;;;;;;17.83;10.17;;;1.70;99.90;;;;;;5118343;28;20452;-63
2023/03/07 03:39:23;;;;;;;17.57;9.73;;;1.70;99.90;;;;;;5117410;28;20461;-62
2023/03/07 03:41:50;;;;;;;18.63;10.17;;;1.70;99.90;;;;;;5117536;28;20465;-62
2023/03/07 03:44:17;;;;;;;16.60;8.13;;;1.70;99.90;;;;;;5117803;28;20473;-60
2023/03/07 03:46:44;;;;;;;20.63;11.30;;;1.80;99.90;;;;;;5117579;28;20429;-65
2023/03/07 03:49:12;;;;;;;21.40;12.77;;;1.80;99.90;;;;;;5118172;28;20449;-62
2023/03/07 03:51:39;;;;;;;20.27;10.60;;;1.80;99.90;;;;;;5118323;28;20469;-61
2023/03/07 03:54:07;;;;;;;18.93;11.07;;;1.80;99.90;;;;;;5117916;28;20456;-62
2023/03/07 03:56:34;;;;;;;21.17;9.30;;;1.80;99.90;;;;;;5118403;28;20418;-60
2023/03/07 03:59:01;;;;;;;22.30;10.67;;;1.80;99.90;;;;;;5117651;28;20481;-64
2023/03/07 04:01:29;;;;;;;25.23;10.80;;;1.80;99.90;;;;;;5117178;28;20461;-60
2023/03/07 04:03:57;;;;;;;19.70;9.97;;;1.80;99.90;;;;;;5117753;28;20437;-59
2023/03/07 04:06:26;;;;;;;21.73;9.67;;;1.80;99.90;;;;;;5117888;28;20461;-62
2023/03/07 04:08:53;;;;;;;18.43;8.80;;;1.80;99.90;;;;;;5118627;28;20453;-56
2023/03/07 04:11:23;;;;;;;19.90;9.67;;;1.80;99.90;;;;;;5118221;28;20449;-62
2023/03/07 04:13:50;;;;;;;19.20;9.40;;;1.90;99.90;;;;;;5118004;28;20441;-60
2023/03/07 04:16:17;;;;;;;21.30;11.57;;;1.90;99.90;;;;;;5117930;28;20421;-60
2023/03/07 04:18:49;;;;;;;17.87;9.30;;;1.90;99.90;;;;;;5117265;28;20457;-64
2023/03/07 04:21:16;;;;;;;17.67;9.93;;;1.90;99.90;;;;;;5116760;28;20453;-61
2023/03/07 04:23:43;;;;;;;15.73;8.97;;;1.90;99.90;;;;;;5117238;28;20472;-58
2023/03/07 04:26:11;;;;;;;15.50;10.70;;;2.00;99.90;;;;;;5116269;28;20449;-60
2023/03/07 04:28:44;;;;;;;16.00;7.53;;;2.00;99.90;;;;;;5116410;28;20497;-61
2023/03/07 04:31:12;;;;;;;23.83;9.20;;;2.00;99.90;;;;;;5116902;28;20437;-62
2023/03/07 04:33:40;;;;;;;18.13;9.40;;;2.10;99.90;;;;;;5119120;28;20493;-61
2023/03/07 04:36:08;;;;;;;21.20;9.93;;;2.10;99.90;;;;;;5120891;28;20426;-61
2023/03/07 04:38:37;;;;;;;14.80;10.00;;;2.10;99.90;;;;;;5120487;28;20464;-63
2023/03/07 04:41:04;;;;;;;24.53;9.17;;;2.20;99.90;;;;;;5121450;28;20472;-63
2023/03/07 04:43:33;;;;;;;15.60;8.30;;;2.20;99.90;;;;;;5120800;28;20424;-61
2023/03/07 04:46:01;;;;;;;22.80;10.03;;;2.20;99.90;;;;;;5120533;28;20437;-63
2023/03/07 04:48:28;;;;;;;10.40;6.13;;;2.20;99.90;;;;;;5120393;28;20444;-59
2023/03/07 04:50:55;;;;;;;18.63;8.50;;;2.20;99.90;;;;;;5121108;28;20493;-62
2023/03/07 04:53:22;;;;;;;24.50;8.17;;;2.20;99.90;;;;;;5120843;28;20422;-63
2023/03/07 04:55:49;;;;;;;15.10;7.00;;;2.20;99.90;;;;;;5120032;28;20461;-60
2023/03/07 04:58:16;;;;;;;17.63;8.87;;;2.20;99.90;;;;;;5120914;28;20741;-60
2023/03/07 05:00:44;;;;;;;21.23;9.83;;;2.20;99.90;;;;;;5120446;28;20449;-63
2023/03/07 05:03:13;;;;;;;25.63;11.00;;;2.10;99.90;;;;;;5120748;28;20450;-62
2023/03/07 05:05:41;;;;;;;16.83;7.07;;;2.00;99.90;;;;;;5120929;28;20430;-61
2023/03/07 05:08:08;;;;;;;14.87;9.57;;;1.90;99.90;;;;;;5120808;28;20500;-60
2023/03/07 05:10:35;;;;;;;18.30;9.37;;;1.80;99.90;;;;;;5120129;28;20447;-64
2023/03/07 05:13:03;;;;;;;20.30;7.83;;;1.80;99.90;;;;;;5120123;28;20462;-63
2023/03/07 05:15:33;;;;;;;22.07;10.70;;;1.80;99.90;;;;;;5120454;28;20421;-62
2023/03/07 05:18:02;;;;;;;17.13;9.67;;;1.80;99.90;;;;;;5120434;28;20583;-61
2023/03/07 05:20:30;;;;;;;22.43;9.67;;;1.80;99.90;;;;;;5120220;28;20498;-60
2023/03/07 05:22:57;;;;;;;18.60;8.83;;;1.70;99.90;;;;;;5120211;28;20446;-62
2023/03/07 05:25:24;;;;;;;18.80;7.57;;;1.80;99.90;;;;;;5120260;28;20445;-62
2023/03/07 05:27:51;;;;;;;15.43;9.20;;;1.70;99.90;;;;;;5120294;28;20456;-62
2023/03/07 05:30:20;;;;;;;19.57;8.50;;;1.70;99.90;;;;;;5120046;28;20469;-64
2023/03/07 05:32:47;;;;;;;17.67;8.70;;;1.70;99.90;;;;;;5119655;28;20425;-59
2023/03/07 05:35:15;;;;;;;16.37;7.47;;;1.80;99.90;;;;;;5119426;28;20442;-57
2023/03/07 05:37:43;;;;;;;19.40;10.00;;;1.80;99.90;;;;;;5119228;28;20540;-62
2023/03/07 05:40:14;;;;;;;11.63;7.27;;;1.70;99.90;;;;;;5119633;28;20449;-62
2023/03/07 05:42:41;;;;;;;12.87;7.40;;;1.80;99.90;;;;;;5119927;28;20416;-65
2023/03/07 05:45:09;;;;;;;25.17;11.20;;;1.70;99.90;;;;;;5116269;28;20513;-65
2023/03/07 05:47:40;;;;;;;16.80;8.10;;;1.80;99.90;;;;;;5116748;28;20457;-65
2023/03/07 05:50:08;;;;;;;16.57;8.93;;;1.80;99.90;;;;;;5120549;28;20433;-62
2023/03/07 05:52:35;;;;;;;15.47;9.33;;;1.80;99.90;;;;;;5120475;28;20466;-64
2023/03/07 05:55:04;;;;;;;24.60;11.93;;;1.90;99.90;;;;;;5120190;28;20441;-65
2023/03/07 05:57:31;;;;;;;19.50;10.67;;;1.90;99.90;;;;;;5120098;28;20488;-59
2023/03/07 05:59:58;;;;;;;15.80;9.30;;;1.90;99.90;;;;;;5120331;28;20438;-62
2023/03/07 06:02:24;;;;;;;12.20;7.60;;;1.90;99.90;;;;;;5120174;28;20433;-62
2023/03/07 06:04:51;;;;;;;23.10;9.13;;;1.90;99.90;;;;;;5120000;28;20422;-63
2023/03/07 06:07:18;;;;;;;9.37;7.07;;;1.90;99.90;;;;;;5119810;28;20472;-56
2023/03/07 06:09:45;;;;;;;13.77;7.03;;;1.90;99.90;;;;;;5119426;28;20524;-61
2023/03/07 06:12:13;;;;;;;13.57;8.00;;;1.90;99.90;;;;;;5119414;28;20430;-58
2023/03/07 06:14:40;;;;;;;12.00;7.40;;;1.90;99.90;;;;;;5119469;28;20517;-56
2023/03/07 06:17:07;;;;;;;16.77;7.97;;;2.00;99.90;;;;;;5119452;28;20442;-63
2023/03/07 06:19:34;;;;;;;15.40;8.60;;;2.00;99.90;;;;;;5119483;28;20484;-59
2023/03/07 06:22:01;;;;;;;15.33;7.37;;;2.00;99.90;;;;;;5119078;28;20457;-60
2023/03/07 06:24:29;;;;;;;14.13;8.63;;;2.00;99.90;;;;;;5118836;28;20444;-61
2023/03/07 06:26:56;;;;;;;13.73;8.37;;;2.00;99.90;;;;;;5118901;28;20449;-63
2023/03/07 06:29:24;;;;;;;18.20;9.10;;;2.00;99.90;;;;;;5118633;28;20421;-62
2023/03/07 06:31:51;;;;;;;13.53;7.00;;;2.00;99.90;;;;;;5117658;28;20468;-62
2023/03/07 06:34:18;;;;;;;16.27;10.37;;;2.00;99.90;;;;;;5117404;28;20513;-64
2023/03/07 06:36:47;;;;;;;20.13;7.90;;;2.00;99.90;;;;;;5117908;28;20462;-61
2023/03/07 06:39:15;;;;;;;17.80;8.50;;;2.10;99.90;;;;;;5117399;28;20519;-62
2023/03/07 06:41:42;;;;;;;17.30;8.37;;;2.10;99.90;;;;;;5116941;28;20485;-65
2023/03/07 06:44:10;;;;;;;21.77;11.43;;;2.10;99.90;;;;;;5116313;28;20418;-65
2023/03/07 06:46:38;;;;;;;17.03;7.77;;;2.20;99.90;;;;;;5116763;28;20451;-60
2023/03/07 06:49:05;;;;;;;15.97;8.47;;;2.20;99.90;;;;;;5116319;28;20444;-62
2023/03/07 06:51:32;;;;;;;14.47;7.60;;;2.20;99.90;;;;;;5116889;28;20448;-60
2023/03/07 06:53:59;;;;;;;15.43;8.50;;;2.20;99.90;;;;;;5117448;28;20457;-61
2023/03/07 06:56:26;;;;;;;19.70;8.00;;;2.20;99.90;;;;;;5116764;28;20422;-65
2023/03/07 06:58:53;;;;;;;15.80;9.53;;;2.20;99.90;;;;;;5116117;28;20505;-64
2023/03/07 07:01:23;;;;;;;15.17;8.60;;;2.20;99.90;;;;;;5117306;28;20421;-58
2023/03/07 07:03:51;;;;;;;17.80;8.40;;;2.20;99.90;;;;;;5116444;28;20445;-60
2023/03/07 07:06:18;;;;;;;12.80;7.33;;;2.30;99.90;;;;;;5116257;28;20421;-63
2023/03/07 07:08:45;;;;;;;11.40;7.43;;;2.30;99.90;;;;;;5116490;28;20430;-59
2023/03/07 07:11:12;;;;;;;16.73;8.23;;;2.40;99.90;;;;;;5116714;28;20449;-64
2023/03/07 07:13:38;;;;;;;18.47;7.37;;;2.40;99.90;;;;;;5115990;28;20464;-63
2023/03/07 07:16:08;;;;;;;15.13;6.50;;;2.40;99.90;;;;;;5116660;28;20446;-62
2023/03/07 07:18:35;;;;;;;22.07;9.10;;;2.50;99.90;;;;;;5115856;28;20532;-64
2023/03/07 07:21:04;;;;;;;20.70;11.40;;;2.50;99.90;;;;;;5115507;28;20460;-61
2023/03/07 07:23:31;;;;;;;17.87;9.17;;;2.50;99.90;;;;;;5115900;28;20455;-64
2023/03/07 07:25:57;;;;;;;13.57;7.93;;;2.50;99.90;;;;;;5116619;28;20466;-62
2023/03/07 07:28:25;;;;;;;15.77;8.93;;;2.60;99.90;;;;;;5116212;28;20409;-58
2023/03/07 07:30:52;;;;;;;18.17;7.83;;;2.60;99.90;;;;;;5117314;28;20438;-55
2023/03/07 07:33:19;;;;;;;12.87;8.03;;;2.70;99.90;;;;;;5116472;28;20441;-61
2023/03/07 07:35:46;;;;;;;16.43;9.90;;;2.80;99.90;;;;;;5117661;28;20421;-57
2023/03/07 07:38:14;;;;;;;14.40;6.47;;;2.80;99.90;;;;;;5117573;28;20465;-60
2023/03/07 07:40:41;;;;;;;13.70;7.40;;;2.80;99.90;;;;;;5116350;28;20441;-61
2023/03/07 07:43:14;;;;;;;11.50;6.13;;;2.90;99.90;;;;;;5116775;28;20453;-61
2023/03/07 07:45:41;;;;;;;15.50;7.60;;;2.90;99.90;;;;;;5117568;28;20425;-57
2023/03/07 07:48:08;;;;;;;14.20;7.57;;;2.90;99.90;;;;;;5117403;28;20448;-61
2023/03/07 07:50:35;;;;;;;16.23;9.00;;;3.00;99.90;;;;;;5117098;28;20438;-58
2023/03/07 07:53:03;;;;;;;12.17;7.23;;;3.10;99.90;;;;;;5117120;28;20467;-56
2023/03/07 07:55:32;;;;;;;18.70;9.40;;;3.20;99.90;;;;;;5116754;28;20461;-62
2023/03/07 07:57:59;;;;;;;11.73;7.33;;;3.10;99.90;;;;;;5116105;28;20460;-62
2023/03/07 08:00:26;;;;;;;21.17;8.57;;;3.10;99.90;;;;;;5116320;28;20472;-63
2023/03/07 08:02:53;;;;;;;15.27;8.47;;;3.10;99.90;;;;;;5116164;28;20502;-61
2023/03/07 08:05:21;;;;;;;10.30;6.00;;;3.10;99.90;;;;;;5116366;28;20454;-63
2023/03/07 08:07:49;;;;;;;14.70;5.90;;;3.10;99.90;;;;;;5118305;28;20432;-62
2023/03/07 08:10:18;;;;;;;15.50;7.60;;;3.10;99.90;;;;;;5121312;28;20421;-61
2023/03/07 08:12:50;;;;;;;13.73;6.93;;;3.10;99.90;;;;;;5120603;28;20463;-59
2023/03/07 08:15:18;;;;;;;13.80;6.67;;;3.10;99.90;;;;;;5120830;28;20416;-63
2023/03/07 08:17:46;;;;;;;16.23;8.80;;;3.10;99.90;;;;;;5120610;28;20457;-60
2023/03/07 08:20:13;;;;;;;15.10;7.33;;;3.20;99.90;;;;;;5120256;28;20473;-60
2023/03/07 08:22:42;;;;;;;16.57;7.80;;;3.20;99.90;;;;;;5120619;28;20452;-59
2023/03/07 08:25:17;;;;;;;20.27;10.60;;;3.30;99.90;;;;;;5121049;28;20425;-61
2023/03/07 08:27:45;;;;;;;15.40;6.90;;;3.30;99.90;;;;;;5120390;28;20554;-61
2023/03/07 08:30:13;;;;;;;12.30;7.00;;;3.40;99.90;;;;;;5121127;28;20425;-60
2023/03/07 08:32:40;;;;;;;14.27;8.10;;;3.40;99.90;;;;;;5121016;28;20464;-60
2023/03/07 08:35:09;;;;;;;17.93;8.47;;;3.40;99.90;;;;;;5121286;28;20429;-58
2023/03/07 08:37:38;;;;;;;13.03;7.00;;;3.40;99.90;;;;;;5121241;28;20445;-62
2023/03/07 08:40:06;;;;;;;13.83;6.90;;;3.40;99.90;;;;;;5117452;28;20489;-65
2023/03/07 08:42:33;;;;;;;22.63;8.33;;;3.40;99.90;;;;;;5103922;28;20517;-64
2023/03/07 08:45:01;;;;;;;13.30;6.40;;;3.60;99.90;;;;;;5109969;28;20465;-63
2023/03/07 08:47:28;;;;;;;13.20;7.07;;;3.70;99.90;;;;;;5111845;28;20483;-64
2023/03/07 08:49:56;;;;;;;9.67;5.17;;;3.80;99.90;;;;;;5118213;28;20433;-63
2023/03/07 08:52:23;;;;;;;10.73;6.00;;;3.90;99.90;;;;;;5119595;28;20473;-63
2023/03/07 08:54:50;;;;;;;14.13;7.30;;;3.90;99.90;;;;;;5120748;28;20447;-59
2023/03/07 08:57:17;;;;;;;10.77;7.03;;;4.00;99.90;;;;;;5121272;28;20455;-53
2023/03/07 08:59:44;;;;;;;15.20;5.70;;;4.00;99.90;;;;;;5120820;28;20485;-62
2023/03/07 09:02:12;;;;;;;11.87;6.33;;;4.10;99.90;;;;;;5120987;28;20462;-62
2023/03/07 09:04:39;;;;;;;12.00;6.23;;;4.30;99.90;;;;;;5121283;28;20430;-59
2023/03/07 09:07:06;;;;;;;12.97;7.60;;;4.50;99.90;;;;;;5121274;28;20499;-61
2023/03/07 09:09:35;;;;;;;9.20;6.10;;;4.60;99.90;;;;;;5120735;28;20471;-57
2023/03/07 09:12:02;;;;;;;13.50;7.17;;;4.70;99.90;;;;;;5120667;28;20432;-62
2023/03/07 09:14:29;;;;;;;10.03;5.87;;;4.70;99.90;;;;;;5120279;28;20440;-59
2023/03/07 09:16:56;;;;;;;12.33;6.23;;;4.70;99.90;;;;;;5120190;28;20429;-62
2023/03/07 09:19:24;;;;;;;11.37;5.07;;;4.70;99.90;;;;;;5120409;28;20470;-61
2023/03/07 09:21:51;;;;;;;8.90;6.20;;;4.70;99.90;;;;;;5120801;28;20434;-65
2023/03/07 09:24:18;;;;;;;9.00;5.37;;;4.70;99.90;;;;;;5120100;28;20473;-60
2023/03/07 09:26:45;;;;;;;11.07;5.93;;;4.70;99.90;;;;;;5118825;28;20452;-57
2023/03/07 09:29:12;;;;;;;6.63;4.50;;;4.70;99.90;;;;;;5119268;28;20453;-61
2023/03/07 09:31:39;;;;;;;9.57;5.43;;;4.80;99.90;;;;;;5119714;28;20442;-57
2023/03/07 09:34:06;;;;;;;9.47;4.83;;;4.90;99.90;;;;;;5119879;28;20430;-59
2023/03/07 09:36:35;;;;;;;11.73;5.57;;;5.00;99.90;;;;;;5119160;28;20438;-59
2023/03/07 09:39:03;;;;;;;8.37;4.90;;;5.10;99.90;;;;;;5118866;28;20473;-58
2023/03/07 09:42:04;;;;;;;10.87;6.53;;;5.20;99.90;;;;;;5118871;28;20468;-63
2023/03/07 09:44:49;;;;;;;6.43;3.93;;;5.30;99.90;;;;;;5118851;28;20451;-64
2023/03/07 09:47:43;;;;;;;8.80;4.77;;;5.50;99.90;;;;;;5119242;28;20425;-63
2023/03/07 09:50:13;;;;;;;9.53;4.40;;;5.50;99.90;;;;;;5118590;28;20430;-63
2023/03/07 09:52:43;;;;;;;6.87;3.87;;;5.60;99.90;;;;;;5118565;28;20438;-61
2023/03/07 09:55:15;;;;;;;5.13;3.97;;;5.50;99.90;;;;;;5118548;28;20476;-64
2023/03/07 09:57:49;;;;;;;8.23;4.43;;;5.50;99.90;;;;;;5118215;28;20467;-63
2023/03/07 10:00:21;;;;;;;8.57;3.73;;;5.50;99.90;;;;;;5118492;28;20495;-58
2023/03/07 10:02:53;;;;;;;11.07;6.00;;;5.50;99.90;;;;;;5119648;28;20515;-62
2023/03/07 10:05:30;;;;;;;8.30;5.00;;;5.50;99.90;;;;;;5118805;28;20826;-62
2023/03/07 10:08:00;;;;;;;7.73;5.20;;;5.50;99.90;;;;;;5118181;28;20462;-60
2023/03/07 10:10:36;;;;;;;7.63;5.47;;;5.40;99.90;;;;;;5118042;28;20426;-60
2023/03/07 10:13:18;;;;;;;7.60;4.60;;;5.50;99.90;;;;;;5118435;28;20414;-60
2023/03/07 10:15:47;;;;;;;6.10;4.17;;;5.40;99.90;;;;;;5118443;28;20456;-65
2023/03/07 10:18:21;;;;;;;7.33;4.30;;;5.30;99.90;;;;;;5118454;28;20445;-60
2023/03/07 10:20:51;;;;;;;7.07;3.87;;;5.40;99.90;;;;;;5118390;28;20461;-62
2023/03/07 10:24:00;;;;;;;6.03;3.47;;;5.40;99.90;;;;;;5118662;28;20471;-62
2023/03/07 10:26:32;;;;;;;5.40;3.83;;;5.30;99.90;;;;;;5118509;28;20430;-62
2023/03/07 10:29:02;;;;;;;8.73;3.83;;;5.20;99.90;;;;;;5117217;28;20430;-59
2023/03/07 10:31:33;;;;;;;7.60;3.93;;;5.30;99.90;;;;;;5116853;28;20475;-62
2023/03/07 10:34:08;;;;;;;5.33;3.50;;;5.20;99.90;;;;;;5118326;28;20450;-60
2023/03/07 10:36:42;;;;;;;6.90;3.70;;;5.20;99.90;;;;;;5118269;28;20465;-63
2023/03/07 10:39:22;;;;;;;5.83;3.80;;;5.20;99.90;;;;;;5118366;28;20422;-64
2023/03/07 10:41:49;;;;;;;6.80;4.27;;;5.20;99.90;;;;;;5117665;28;20461;-61
2023/03/07 10:44:20;;;;;;;3.90;2.30;;;5.20;99.90;;;;;;5118794;28;20433;-61
2023/03/07 10:46:51;;;;;;;5.67;4.33;;;5.10;99.90;;;;;;5117966;28;20413;-59
2023/03/07 10:49:25;;;;;;;7.43;4.30;;;5.00;99.90;;;;;;5118749;28;20421;-60
2023/03/07 10:51:58;;;;;;;6.80;4.63;;;4.90;99.90;;;;;;5119173;28;20413;-61
2023/03/07 10:54:29;;;;;;;5.13;2.70;;;4.90;99.90;;;;;;5119150;28;20426;-61
2023/03/07 10:57:05;;;;;;;7.17;3.80;;;4.90;99.90;;;;;;5118828;28;20406;-60
2023/03/07 10:59:32;;;;;;;6.97;3.80;;;4.80;99.90;;;;;;5118438;28;20484;-55
2023/03/07 11:02:01;;;;;;;3.40;2.00;;;4.80;99.90;;;;;;5118759;28;20465;-63
2023/03/07 11:04:29;;;;;;;6.50;3.50;;;4.70;99.90;;;;;;5118280;28;20461;-59
2023/03/07 11:06:58;;;;;;;4.60;3.23;;;4.60;99.90;;;;;;5118640;28;20442;-58
2023/03/07 11:09:29;;;;;;;4.00;2.17;;;4.60;99.90;;;;;;5118132;28;20496;-60
2023/03/07 11:11:58;;;;;;;4.83;3.50;;;4.50;99.90;;;;;;5118527;28;20422;-63
2023/03/07 11:14:26;;;;;;;4.93;3.53;;;4.40;99.90;;;;;;5118307;28;20456;-58
2023/03/07 11:16:55;;;;;;;3.60;1.90;;;4.40;99.90;;;;;;5118625;28;20433;-63
2023/03/07 11:19:34;;;;;;;4.20;2.23;;;4.40;99.90;;;;;;5118374;28;20433;-60
2023/03/07 11:22:03;;;;;;;13.93;1.93;;;4.30;99.90;;;;;;5117517;28;20467;-61
2023/03/07 11:24:36;;;;;;;3.70;1.60;;;4.30;99.90;;;;;;5117640;28;20417;-64
2023/03/07 11:27:04;;;;;;;6.13;2.00;;;4.30;99.90;;;;;;5117927;28;20470;-58
2023/03/07 11:29:32;;;;;;;3.40;1.47;;;4.20;99.90;;;;;;5117657;28;20469;-60
2023/03/07 11:32:04;;;;;;;2.83;1.43;;;4.20;99.90;;;;;;5117736;28;20474;-64
2023/03/07 11:34:37;;;;;;;1.70;1.00;;;4.20;99.90;;;;;;5118252;28;20426;-65
2023/03/07 11:37:17;;;;;;;2.50;1.50;;;4.20;99.90;;;;;;5118265;28;20430;-64
2023/03/07 11:39:55;;;;;;;3.00;1.37;;;4.30;99.90;;;;;;5118574;28;20456;-55
2023/03/07 11:42:28;;;;;;;8.23;1.80;;;4.40;99.90;;;;;;5120603;28;20416;-58
2023/03/07 11:45:00;;;;;;;1.47;1.30;;;4.30;99.90;;;;;;5122417;28;20436;-62
2023/03/07 11:47:38;;;;;;;3.83;1.47;;;4.30;99.90;;;;;;5122451;28;20491;-63
2023/03/07 11:50:15;;;;;;;2.03;1.40;;;4.30;99.90;;;;;;5121970;28;20428;-60
2023/03/07 11:53:20;;;;;;;3.07;1.83;;;4.30;99.90;;;;;;5122432;28;20436;-60
2023/03/07 11:55:58;;;;;;;1.87;1.10;;;4.30;99.90;;;;;;5121480;28;20435;-62
2023/03/07 11:58:36;;;;;;;1.47;1.20;;;4.30;99.90;;;;;;5122066;28;20447;-57
2023/03/07 12:01:14;;;;;;;4.23;1.10;;;4.40;99.90;;;;;;5122035;28;20518;-60
2023/03/07 12:04:10;;;;;;;1.73;1.07;;;4.40;99.90;;;;;;5122421;28;20417;-61
2023/03/07 12:06:47;;;;;;;2.33;1.23;;;4.40;99.90;;;;;;5122368;28;20453;-60
2023/03/07 12:09:28;;;;;;;3.80;1.40;;;4.40;99.90;;;;;;5122878;28;20434;-59
2023/03/07 12:12:14;;;;;;;2.70;1.20;;;4.50;99.90;;;;;;5121669;28;20465;-60
2023/03/07 12:14:50;;;;;;;1.60;1.10;;;4.50;99.90;;;;;;5121197;28;20426;-63
2023/03/07 12:17:27;;;;;;;2.03;1.63;;;4.50;99.90;;;;;;5121457;28;20507;-56
2023/03/07 12:20:17;;;;;;;2.10;1.17;;;4.40;99.90;;;;;;5121374;28;20452;-60
2023/03/07 12:22:55;;;;;;;3.10;0.90;;;4.40;99.90;;;;;;5121167;28;20480;-60
2023/03/07 12:25:25;;;;;;;2.27;0.90;;;4.40;99.90;;;;;;5121498;28;20431;-61
2023/03/07 12:28:05;;;;;;;2.20;1.10;;;4.30;99.90;;;;;;5121166;28;20533;-64
2023/03/07 12:30:43;;;;;;;1.10;0.90;;;4.30;99.90;;;;;;5121502;28;20427;-63
2023/03/07 12:33:17;;;;;;;2.90;0.97;;;4.20;99.90;;;;;;5121048;28;20468;-62
2023/03/07 12:35:49;;;;;;;2.63;1.30;;;4.00;99.90;;;;;;5120848;28;20451;-60
2023/03/07 12:38:27;;;;;;;1.53;0.83;;;3.90;99.90;;;;;;5120998;28;20406;-62
2023/03/07 12:41:01;;;;;;;2.23;1.43;;;3.90;99.90;;;;;;5121345;28;20484;-63
2023/03/07 12:43:33;;;;;;;1.93;1.47;;;3.90;99.90;;;;;;5120865;28;20425;-61
2023/03/07 12:46:08;;;;;;;2.00;1.47;;;3.90;99.90;;;;;;5121387;28;20422;-61
2023/03/07 12:48:42;;;;;;;1.50;1.30;;;3.80;99.90;;;;;;5121524;28;20426;-57
2023/03/07 12:51:17;;;;;;;6.03;1.60;;;3.80;99.90;;;;;;5121571;28;20418;-65
2023/03/07 12:53:52;;;;;;;1.33;0.90;;;3.70;99.90;;;;;;5120620;28;20409;-60
2023/03/07 12:56:24;;;;;;;1.20;1.10;;;3.70;99.90;;;;;;5121039;28;20449;-62
2023/03/07 12:58:57;;;;;;;1.00;0.87;;;3.60;99.90;;;;;;5121356;28;20434;-59
2023/03/07 13:01:31;;;;;;;1.63;1.07;;;3.60;99.90;;;;;;5121303;28;20479;-62